Littleton, NH

1:28 AM EST on February 09, 2016 (GMT -0500)
NHDOT | | Change Station
CLOSE
Current Station
Personal Weather Station
Location: Waterford, VT
Elevation: 866 ft
Nearby Weather Stations
Active Advisory: Winter Weather Advisory Active Notice: Public Information Statement

Elev 866 ft 44.33 °N, 71.87 °W | Updated 234 days ago

Snow
Snow
17 °F
Feels Like 10 °F
N
5
Wind Variable Wind from ENE
Gusts mph

Today
High -- | Low -- °F
--% Chance of Precip.
Yesterday
High -- | Low -- °F
Precip. -- in
Pressure 29.72 in
Visibility 2.0 miles
Clouds Overcast 1200 ft
Windchill 10 °F
Dew Point 12 °F
Humidity 80%
Rainfall in
Snow Depth Not available.
6:56 AM 5:07 PM
New Moon, 1% visible
METAR KCDA 090615Z AUTO 00000KT 2SM -SN OVC012 M09/M10 A2972 RMK AO2 T10871105
Pressure 29.72 in
Visibility 2.0 miles
Clouds Overcast 1200 ft
Windchill 10 °F
Dew Point 12 °F
Humidity 80%
Rainfall in
Snow Depth Not available.
6:56 AM 5:07 PM
New Moon, 1% visible
METAR KCDA 090615Z AUTO 00000KT 2SM -SN OVC012 M09/M10 A2972 RMK AO2 T10871105

10-Day Weather Forecast

Almanac

Astronomy

Feb. 09, 2016 Rise Set
Actual Time
Civil Twilight
Nautical Twilight
Astronomical Twilight
Moon
Length of Visible Light
Length of Day
Tomorrow will be .
, % of the Moon is Illuminated

Today's Extremes

State Highs State Lows

Community

WunderPhotos

Upload Photos

1,891,571 photos uploaded!

WunderBlog® & News

Nearby

Air Quality

  Air Quality AQ Index Pollutant
Not available.

Snow Depth

Station Depth Elevation

Earthquake Activity

City Distance Mag. Time & Date
Minimum magnitude displayed is 2.5.

Coastal Water Temperatures

Place Temperature

Stations

Nearby Weather Stations

Station Location Temp. Windchill Dew Point Humidity Wind Precip. Elev Updated Type
                   

Watches & Warnings

Winter Weather Advisory
Issued: 9:10 PM EST Feb. 8, 2016 – National Weather Service

... Winter Weather Advisory remains in effect until 6 am EST
Tuesday...

* hazard types... snow.

* Accumulations... snow accumulation of 3 to 6 inches.

* Timing... snow continues tonight. Some light snow could linger
into Tuesday but much of the accumulation will be over by early Tuesday
morning.

* Impacts... roads will remain snow covered and slippery.

* Winds... northeast 5 to 15 mph.

* Temperatures... in the teens.

Precautionary/preparedness actions...

A Winter Weather Advisory for snow means that periods of snow
will cause primarily travel difficulties. Be prepared for snow
covered roads and limited visibilities... and use caution while
driving.